sensor_id;sensor_type;location;lat;lon;timestamp;P1;durP1;ratioP1;P2;durP2;ratioP2
77544;SDS011;66672;50.328;7.610;2024-01-30T00:00:31;28.65;;;25.63;;
77544;SDS011;66672;50.328;7.610;2024-01-30T00:02:56;26.65;;;24.08;;
77544;SDS011;66672;50.328;7.610;2024-01-30T00:05:21;28.17;;;25.23;;
77544;SDS011;66672;50.328;7.610;2024-01-30T00:07:46;27.38;;;24.73;;
77544;SDS011;66672;50.328;7.610;2024-01-30T00:10:12;25.85;;;23.52;;
77544;SDS011;66672;50.328;7.610;2024-01-30T00:12:37;26.17;;;23.85;;
77544;SDS011;66672;50.328;7.610;2024-01-30T00:15:02;26.83;;;24.20;;
77544;SDS011;66672;50.328;7.610;2024-01-30T00:17:29;27.98;;;25.23;;
77544;SDS011;66672;50.328;7.610;2024-01-30T00:19:54;27.58;;;25.02;;
77544;SDS011;66672;50.328;7.610;2024-01-30T00:22:20;28.63;;;25.70;;
77544;SDS011;66672;50.328;7.610;2024-01-30T00:24:45;27.15;;;24.65;;
77544;SDS011;66672;50.328;7.610;2024-01-30T00:27:10;27.55;;;24.70;;
77544;SDS011;66672;50.328;7.610;2024-01-30T00:29:35;27.45;;;24.65;;
77544;SDS011;66672;50.328;7.610;2024-01-30T00:32:01;27.20;;;24.35;;
77544;SDS011;66672;50.328;7.610;2024-01-30T00:34:26;26.92;;;24.23;;
77544;SDS011;66672;50.328;7.610;2024-01-30T00:36:52;28.02;;;25.17;;
77544;SDS011;66672;50.328;7.610;2024-01-30T00:39:17;26.13;;;23.70;;
77544;SDS011;66672;50.328;7.610;2024-01-30T00:41:44;27.25;;;24.85;;
77544;SDS011;66672;50.328;7.610;2024-01-30T00:44:09;27.15;;;24.55;;
77544;SDS011;66672;50.328;7.610;2024-01-30T00:46:34;27.73;;;24.90;;
77544;SDS011;66672;50.328;7.610;2024-01-30T00:49:00;27.42;;;24.92;;
77544;SDS011;66672;50.328;7.610;2024-01-30T00:51:25;26.33;;;23.73;;
77544;SDS011;66672;50.328;7.610;2024-01-30T00:53:50;27.58;;;24.98;;
77544;SDS011;66672;50.328;7.610;2024-01-30T00:56:15;28.02;;;25.13;;
77544;SDS011;66672;50.328;7.610;2024-01-30T00:58:43;27.10;;;24.60;;
77544;SDS011;66672;50.328;7.610;2024-01-30T01:01:08;29.05;;;26.25;;
77544;SDS011;66672;50.328;7.610;2024-01-30T01:03:33;26.85;;;24.20;;
77544;SDS011;66672;50.328;7.610;2024-01-30T01:05:58;26.95;;;24.38;;
77544;SDS011;66672;50.328;7.610;2024-01-30T01:08:24;27.75;;;25.15;;
77544;SDS011;66672;50.328;7.610;2024-01-30T01:10:50;27.35;;;24.85;;
77544;SDS011;66672;50.328;7.610;2024-01-30T01:13:15;27.00;;;24.45;;
77544;SDS011;66672;50.328;7.610;2024-01-30T01:15:40;26.58;;;23.90;;
77544;SDS011;66672;50.328;7.610;2024-01-30T01:18:05;26.77;;;24.15;;
77544;SDS011;66672;50.328;7.610;2024-01-30T01:20:30;27.77;;;24.95;;
77544;SDS011;66672;50.328;7.610;2024-01-30T01:22:56;26.98;;;24.65;;
77544;SDS011;66672;50.328;7.610;2024-01-30T01:25:21;26.48;;;23.98;;
77544;SDS011;66672;50.328;7.610;2024-01-30T01:27:46;27.08;;;24.35;;
77544;SDS011;66672;50.328;7.610;2024-01-30T01:30:16;28.17;;;25.38;;
77544;SDS011;66672;50.328;7.610;2024-01-30T01:32:49;27.23;;;24.38;;
77544;SDS011;66672;50.328;7.610;2024-01-30T01:35:22;27.73;;;24.98;;
77544;SDS011;66672;50.328;7.610;2024-01-30T01:37:52;27.10;;;24.35;;
77544;SDS011;66672;50.328;7.610;2024-01-30T01:40:23;27.98;;;25.05;;
77544;SDS011;66672;50.328;7.610;2024-01-30T01:42:49;27.65;;;25.05;;
77544;SDS011;66672;50.328;7.610;2024-01-30T01:45:14;27.33;;;24.77;;
77544;SDS011;66672;50.328;7.610;2024-01-30T01:47:39;27.40;;;24.70;;
77544;SDS011;66672;50.328;7.610;2024-01-30T01:50:05;28.63;;;25.83;;
77544;SDS011;66672;50.328;7.610;2024-01-30T01:52:30;27.17;;;24.67;;
77544;SDS011;66672;50.328;7.610;2024-01-30T01:54:55;27.73;;;25.13;;
77544;SDS011;66672;50.328;7.610;2024-01-30T01:57:20;27.45;;;24.75;;
77544;SDS011;66672;50.328;7.610;2024-01-30T01:59:46;28.15;;;25.52;;
77544;SDS011;66672;50.328;7.610;2024-01-30T02:02:11;26.98;;;24.25;;
77544;SDS011;66672;50.328;7.610;2024-01-30T02:04:37;27.30;;;24.55;;
77544;SDS011;66672;50.328;7.610;2024-01-30T02:07:03;26.70;;;24.20;;
77544;SDS011;66672;50.328;7.610;2024-01-30T02:09:28;27.15;;;24.45;;
77544;SDS011;66672;50.328;7.610;2024-01-30T02:11:53;27.77;;;25.05;;
77544;SDS011;66672;50.328;7.610;2024-01-30T02:14:19;31.17;;;25.10;;
77544;SDS011;66672;50.328;7.610;2024-01-30T02:16:44;26.88;;;24.38;;
77544;SDS011;66672;50.328;7.610;2024-01-30T02:19:09;27.58;;;24.70;;
77544;SDS011;66672;50.328;7.610;2024-01-30T02:21:34;27.48;;;24.95;;
77544;SDS011;66672;50.328;7.610;2024-01-30T02:23:59;29.05;;;25.05;;
77544;SDS011;66672;50.328;7.610;2024-01-30T02:26:26;27.33;;;24.45;;
77544;SDS011;66672;50.328;7.610;2024-01-30T02:28:51;27.33;;;24.83;;
77544;SDS011;66672;50.328;7.610;2024-01-30T02:31:16;27.67;;;25.08;;
77544;SDS011;66672;50.328;7.610;2024-01-30T02:33:41;26.70;;;24.23;;
77544;SDS011;66672;50.328;7.610;2024-01-30T02:36:06;27.52;;;24.92;;
77544;SDS011;66672;50.328;7.610;2024-01-30T02:38:32;27.60;;;24.97;;
77544;SDS011;66672;50.328;7.610;2024-01-30T02:40:57;27.60;;;24.67;;
77544;SDS011;66672;50.328;7.610;2024-01-30T02:43:22;26.17;;;23.88;;
77544;SDS011;66672;50.328;7.610;2024-01-30T02:45:47;26.15;;;23.85;;
77544;SDS011;66672;50.328;7.610;2024-01-30T02:48:12;26.37;;;23.97;;
77544;SDS011;66672;50.328;7.610;2024-01-30T02:50:37;26.17;;;23.65;;
77544;SDS011;66672;50.328;7.610;2024-01-30T02:53:03;25.80;;;23.48;;
77544;SDS011;66672;50.328;7.610;2024-01-30T02:55:28;25.90;;;23.47;;
77544;SDS011;66672;50.328;7.610;2024-01-30T02:57:53;26.47;;;24.00;;
77544;SDS011;66672;50.328;7.610;2024-01-30T03:00:19;26.90;;;24.30;;
77544;SDS011;66672;50.328;7.610;2024-01-30T03:02:44;26.30;;;23.80;;
77544;SDS011;66672;50.328;7.610;2024-01-30T03:05:09;28.17;;;24.53;;
77544;SDS011;66672;50.328;7.610;2024-01-30T03:07:35;26.90;;;24.20;;
77544;SDS011;66672;50.328;7.610;2024-01-30T03:10:00;25.87;;;23.47;;
77544;SDS011;66672;50.328;7.610;2024-01-30T03:12:25;27.57;;;24.83;;
77544;SDS011;66672;50.328;7.610;2024-01-30T03:14:50;26.05;;;23.65;;
77544;SDS011;66672;50.328;7.610;2024-01-30T03:17:16;26.65;;;24.25;;
77544;SDS011;66672;50.328;7.610;2024-01-30T03:19:41;26.60;;;24.27;;
77544;SDS011;66672;50.328;7.610;2024-01-30T03:22:06;27.13;;;24.63;;
77544;SDS011;66672;50.328;7.610;2024-01-30T03:24:32;27.65;;;24.95;;
77544;SDS011;66672;50.328;7.610;2024-01-30T03:26:57;25.35;;;22.98;;
77544;SDS011;66672;50.328;7.610;2024-01-30T03:29:22;25.38;;;22.98;;
77544;SDS011;66672;50.328;7.610;2024-01-30T03:31:47;26.23;;;23.63;;
77544;SDS011;66672;50.328;7.610;2024-01-30T03:34:12;26.70;;;24.10;;
77544;SDS011;66672;50.328;7.610;2024-01-30T03:36:38;27.17;;;24.67;;
77544;SDS011;66672;50.328;7.610;2024-01-30T03:39:03;26.27;;;23.75;;
77544;SDS011;66672;50.328;7.610;2024-01-30T03:41:28;27.02;;;24.35;;
77544;SDS011;66672;50.328;7.610;2024-01-30T03:43:53;26.75;;;24.17;;
77544;SDS011;66672;50.328;7.610;2024-01-30T03:46:18;28.17;;;25.38;;
77544;SDS011;66672;50.328;7.610;2024-01-30T03:48:44;27.42;;;24.73;;
77544;SDS011;66672;50.328;7.610;2024-01-30T03:51:09;27.42;;;24.90;;
77544;SDS011;66672;50.328;7.610;2024-01-30T03:53:39;29.45;;;26.63;;
77544;SDS011;66672;50.328;7.610;2024-01-30T03:56:04;30.27;;;26.23;;
77544;SDS011;66672;50.328;7.610;2024-01-30T03:58:29;27.70;;;24.98;;
77544;SDS011;66672;50.328;7.610;2024-01-30T04:00:55;28.75;;;25.85;;
77544;SDS011;66672;50.328;7.610;2024-01-30T04:03:20;28.05;;;25.23;;
77544;SDS011;66672;50.328;7.610;2024-01-30T04:05:45;29.08;;;26.05;;
77544;SDS011;66672;50.328;7.610;2024-01-30T04:08:10;27.85;;;25.27;;
77544;SDS011;66672;50.328;7.610;2024-01-30T04:10:35;29.10;;;26.23;;
77544;SDS011;66672;50.328;7.610;2024-01-30T04:13:00;28.27;;;25.38;;
77544;SDS011;66672;50.328;7.610;2024-01-30T04:15:26;27.90;;;25.15;;
77544;SDS011;66672;50.328;7.610;2024-01-30T04:17:51;27.40;;;24.73;;
77544;SDS011;66672;50.328;7.610;2024-01-30T04:20:17;28.65;;;25.92;;
77544;SDS011;66672;50.328;7.610;2024-01-30T04:22:45;28.48;;;25.60;;
77544;SDS011;66672;50.328;7.610;2024-01-30T04:25:10;28.25;;;25.55;;
77544;SDS011;66672;50.328;7.610;2024-01-30T04:27:36;28.27;;;25.42;;
77544;SDS011;66672;50.328;7.610;2024-01-30T04:30:01;27.65;;;24.73;;
77544;SDS011;66672;50.328;7.610;2024-01-30T04:32:26;26.67;;;24.05;;
77544;SDS011;66672;50.328;7.610;2024-01-30T04:34:51;26.65;;;24.13;;
77544;SDS011;66672;50.328;7.610;2024-01-30T04:37:16;27.35;;;24.52;;
77544;SDS011;66672;50.328;7.610;2024-01-30T04:39:41;27.02;;;24.42;;
77544;SDS011;66672;50.328;7.610;2024-01-30T04:42:07;28.48;;;25.60;;
77544;SDS011;66672;50.328;7.610;2024-01-30T04:44:32;28.20;;;25.30;;
77544;SDS011;66672;50.328;7.610;2024-01-30T04:46:57;27.90;;;25.23;;
77544;SDS011;66672;50.328;7.610;2024-01-30T04:49:26;27.98;;;25.25;;
77544;SDS011;66672;50.328;7.610;2024-01-30T04:51:51;28.88;;;25.85;;
77544;SDS011;66672;50.328;7.610;2024-01-30T04:54:16;29.63;;;26.52;;
77544;SDS011;66672;50.328;7.610;2024-01-30T04:56:41;28.00;;;25.40;;
77544;SDS011;66672;50.328;7.610;2024-01-30T04:59:07;27.33;;;24.73;;
77544;SDS011;66672;50.328;7.610;2024-01-30T05:01:33;28.52;;;25.60;;
77544;SDS011;66672;50.328;7.610;2024-01-30T05:03:58;25.57;;;23.27;;
77544;SDS011;66672;50.328;7.610;2024-01-30T05:06:27;26.83;;;24.27;;
77544;SDS011;66672;50.328;7.610;2024-01-30T05:08:52;28.33;;;25.57;;
77544;SDS011;66672;50.328;7.610;2024-01-30T05:11:17;27.15;;;24.67;;
77544;SDS011;66672;50.328;7.610;2024-01-30T05:13:43;27.75;;;25.10;;
77544;SDS011;66672;50.328;7.610;2024-01-30T05:16:08;28.52;;;25.83;;
77544;SDS011;66672;50.328;7.610;2024-01-30T05:18:33;27.83;;;25.10;;
77544;SDS011;66672;50.328;7.610;2024-01-30T05:20:58;29.65;;;26.55;;
77544;SDS011;66672;50.328;7.610;2024-01-30T05:23:23;28.15;;;25.38;;
77544;SDS011;66672;50.328;7.610;2024-01-30T05:25:48;27.53;;;24.90;;
77544;SDS011;66672;50.328;7.610;2024-01-30T05:28:14;27.42;;;24.80;;
77544;SDS011;66672;50.328;7.610;2024-01-30T05:30:39;28.50;;;25.85;;
77544;SDS011;66672;50.328;7.610;2024-01-30T05:33:04;28.52;;;25.85;;
77544;SDS011;66672;50.328;7.610;2024-01-30T05:35:29;28.67;;;25.77;;
77544;SDS011;66672;50.328;7.610;2024-01-30T05:37:54;28.05;;;25.33;;
77544;SDS011;66672;50.328;7.610;2024-01-30T05:40:20;28.70;;;25.98;;
77544;SDS011;66672;50.328;7.610;2024-01-30T05:42:45;28.02;;;25.23;;
77544;SDS011;66672;50.328;7.610;2024-01-30T05:45:10;28.60;;;25.80;;
77544;SDS011;66672;50.328;7.610;2024-01-30T05:47:35;29.07;;;26.33;;
77544;SDS011;66672;50.328;7.610;2024-01-30T05:50:00;29.80;;;26.90;;
77544;SDS011;66672;50.328;7.610;2024-01-30T05:52:25;28.33;;;25.63;;
77544;SDS011;66672;50.328;7.610;2024-01-30T05:54:51;28.83;;;25.90;;
77544;SDS011;66672;50.328;7.610;2024-01-30T05:57:16;28.77;;;25.87;;
77544;SDS011;66672;50.328;7.610;2024-01-30T05:59:41;28.83;;;26.10;;
77544;SDS011;66672;50.328;7.610;2024-01-30T06:02:06;28.38;;;25.42;;
77544;SDS011;66672;50.328;7.610;2024-01-30T06:04:32;28.03;;;25.33;;
77544;SDS011;66672;50.328;7.610;2024-01-30T06:06:57;29.03;;;26.07;;
77544;SDS011;66672;50.328;7.610;2024-01-30T06:09:22;30.90;;;26.02;;
77544;SDS011;66672;50.328;7.610;2024-01-30T06:11:47;27.63;;;24.92;;
77544;SDS011;66672;50.328;7.610;2024-01-30T06:14:12;27.95;;;25.27;;
77544;SDS011;66672;50.328;7.610;2024-01-30T06:16:38;29.40;;;26.40;;
77544;SDS011;66672;50.328;7.610;2024-01-30T06:19:03;29.30;;;26.20;;
77544;SDS011;66672;50.328;7.610;2024-01-30T06:21:28;29.00;;;26.10;;
77544;SDS011;66672;50.328;7.610;2024-01-30T06:23:53;30.90;;;26.67;;
77544;SDS011;66672;50.328;7.610;2024-01-30T06:26:18;29.58;;;26.40;;
77544;SDS011;66672;50.328;7.610;2024-01-30T06:28:44;30.17;;;27.03;;
77544;SDS011;66672;50.328;7.610;2024-01-30T06:31:09;29.50;;;26.47;;
77544;SDS011;66672;50.328;7.610;2024-01-30T06:33:34;29.70;;;26.80;;
77544;SDS011;66672;50.328;7.610;2024-01-30T06:35:59;30.07;;;26.80;;
77544;SDS011;66672;50.328;7.610;2024-01-30T06:38:25;29.53;;;26.40;;
77544;SDS011;66672;50.328;7.610;2024-01-30T06:40:50;29.67;;;26.67;;
77544;SDS011;66672;50.328;7.610;2024-01-30T06:43:15;28.40;;;25.63;;
77544;SDS011;66672;50.328;7.610;2024-01-30T06:45:40;29.27;;;26.17;;
77544;SDS011;66672;50.328;7.610;2024-01-30T06:48:07;28.73;;;25.83;;
77544;SDS011;66672;50.328;7.610;2024-01-30T06:50:32;29.70;;;26.70;;
77544;SDS011;66672;50.328;7.610;2024-01-30T06:52:58;28.10;;;25.23;;
77544;SDS011;66672;50.328;7.610;2024-01-30T06:55:23;29.10;;;26.20;;
77544;SDS011;66672;50.328;7.610;2024-01-30T06:57:49;28.73;;;25.83;;
77544;SDS011;66672;50.328;7.610;2024-01-30T07:00:14;29.00;;;26.13;;
77544;SDS011;66672;50.328;7.610;2024-01-30T07:02:40;29.23;;;26.07;;
77544;SDS011;66672;50.328;7.610;2024-01-30T07:05:05;29.20;;;26.40;;
77544;SDS011;66672;50.328;7.610;2024-01-30T07:07:30;29.88;;;26.95;;
77544;SDS011;66672;50.328;7.610;2024-01-30T07:09:56;28.87;;;26.13;;
77544;SDS011;66672;50.328;7.610;2024-01-30T07:12:22;28.00;;;25.30;;
77544;SDS011;66672;50.328;7.610;2024-01-30T07:14:47;29.97;;;26.80;;
77544;SDS011;66672;50.328;7.610;2024-01-30T07:17:13;27.70;;;25.07;;
77544;SDS011;66672;50.328;7.610;2024-01-30T07:19:38;29.13;;;26.33;;
77544;SDS011;66672;50.328;7.610;2024-01-30T07:22:03;29.03;;;26.13;;
77544;SDS011;66672;50.328;7.610;2024-01-30T07:24:29;28.67;;;25.73;;
77544;SDS011;66672;50.328;7.610;2024-01-30T07:26:54;29.07;;;26.13;;
77544;SDS011;66672;50.328;7.610;2024-01-30T07:29:19;27.77;;;24.97;;
77544;SDS011;66672;50.328;7.610;2024-01-30T07:31:45;29.70;;;26.77;;
77544;SDS011;66672;50.328;7.610;2024-01-30T07:34:11;28.70;;;26.00;;
77544;SDS011;66672;50.328;7.610;2024-01-30T07:36:37;28.60;;;25.90;;
77544;SDS011;66672;50.328;7.610;2024-01-30T07:39:02;27.83;;;24.87;;
77544;SDS011;66672;50.328;7.610;2024-01-30T07:41:27;28.30;;;25.57;;
77544;SDS011;66672;50.328;7.610;2024-01-30T07:43:52;28.73;;;25.93;;
77544;SDS011;66672;50.328;7.610;2024-01-30T07:46:18;28.53;;;25.63;;
77544;SDS011;66672;50.328;7.610;2024-01-30T07:48:43;28.40;;;25.57;;
77544;SDS011;66672;50.328;7.610;2024-01-30T07:51:08;29.67;;;26.67;;
77544;SDS011;66672;50.328;7.610;2024-01-30T07:53:34;29.57;;;26.00;;
77544;SDS011;66672;50.328;7.610;2024-01-30T07:55:59;28.63;;;25.92;;
77544;SDS011;66672;50.328;7.610;2024-01-30T07:58:24;29.37;;;26.47;;
77544;SDS011;66672;50.328;7.610;2024-01-30T08:00:52;29.00;;;25.87;;
77544;SDS011;66672;50.328;7.610;2024-01-30T08:03:18;28.40;;;25.60;;
77544;SDS011;66672;50.328;7.610;2024-01-30T08:05:43;28.40;;;25.80;;
77544;SDS011;66672;50.328;7.610;2024-01-30T08:08:08;28.60;;;25.77;;
77544;SDS011;66672;50.328;7.610;2024-01-30T08:10:33;28.87;;;26.03;;
77544;SDS011;66672;50.328;7.610;2024-01-30T08:12:58;28.57;;;25.67;;
77544;SDS011;66672;50.328;7.610;2024-01-30T08:15:24;28.33;;;25.60;;
77544;SDS011;66672;50.328;7.610;2024-01-30T08:17:49;28.27;;;25.47;;
77544;SDS011;66672;50.328;7.610;2024-01-30T08:20:14;28.67;;;25.77;;
77544;SDS011;66672;50.328;7.610;2024-01-30T08:22:39;28.33;;;25.25;;
77544;SDS011;66672;50.328;7.610;2024-01-30T08:25:05;29.40;;;26.57;;
77544;SDS011;66672;50.328;7.610;2024-01-30T08:27:31;29.23;;;26.27;;
77544;SDS011;66672;50.328;7.610;2024-01-30T08:29:56;28.23;;;25.35;;
77544;SDS011;66672;50.328;7.610;2024-01-30T08:32:21;27.92;;;25.10;;
77544;SDS011;66672;50.328;7.610;2024-01-30T08:34:46;28.60;;;25.63;;
77544;SDS011;66672;50.328;7.610;2024-01-30T08:37:11;29.10;;;26.10;;
77544;SDS011;66672;50.328;7.610;2024-01-30T08:39:37;29.27;;;26.17;;
77544;SDS011;66672;50.328;7.610;2024-01-30T08:42:02;28.10;;;25.43;;
77544;SDS011;66672;50.328;7.610;2024-01-30T08:44:28;28.45;;;25.58;;
77544;SDS011;66672;50.328;7.610;2024-01-30T08:46:53;27.90;;;25.23;;
77544;SDS011;66672;50.328;7.610;2024-01-30T08:49:19;28.60;;;25.83;;
77544;SDS011;66672;50.328;7.610;2024-01-30T08:51:45;28.20;;;25.45;;
77544;SDS011;66672;50.328;7.610;2024-01-30T08:54:10;29.02;;;26.13;;
77544;SDS011;66672;50.328;7.610;2024-01-30T08:56:35;30.95;;;27.15;;
77544;SDS011;66672;50.328;7.610;2024-01-30T08:59:01;29.73;;;26.73;;
77544;SDS011;66672;50.328;7.610;2024-01-30T09:01:26;29.45;;;26.40;;
77544;SDS011;66672;50.328;7.610;2024-01-30T09:03:52;30.73;;;27.63;;
77544;SDS011;66672;50.328;7.610;2024-01-30T09:06:24;29.37;;;26.47;;
77544;SDS011;66672;50.328;7.610;2024-01-30T09:08:51;29.52;;;26.35;;
77544;SDS011;66672;50.328;7.610;2024-01-30T09:11:16;30.27;;;26.93;;
77544;SDS011;66672;50.328;7.610;2024-01-30T09:13:41;29.97;;;26.80;;
77544;SDS011;66672;50.328;7.610;2024-01-30T09:16:07;30.05;;;26.85;;
77544;SDS011;66672;50.328;7.610;2024-01-30T09:18:32;31.83;;;28.40;;
77544;SDS011;66672;50.328;7.610;2024-01-30T09:20:58;28.40;;;25.57;;
77544;SDS011;66672;50.328;7.610;2024-01-30T09:23:23;28.03;;;25.47;;
77544;SDS011;66672;50.328;7.610;2024-01-30T09:25:48;29.20;;;26.00;;
77544;SDS011;66672;50.328;7.610;2024-01-30T09:28:14;29.15;;;26.25;;
77544;SDS011;66672;50.328;7.610;2024-01-30T09:30:39;27.33;;;24.67;;
77544;SDS011;66672;50.328;7.610;2024-01-30T09:33:04;28.35;;;25.27;;
77544;SDS011;66672;50.328;7.610;2024-01-30T09:35:30;27.65;;;24.88;;
77544;SDS011;66672;50.328;7.610;2024-01-30T09:37:55;27.73;;;25.02;;
77544;SDS011;66672;50.328;7.610;2024-01-30T09:40:20;28.00;;;25.10;;
77544;SDS011;66672;50.328;7.610;2024-01-30T09:42:49;28.77;;;25.87;;
77544;SDS011;66672;50.328;7.610;2024-01-30T09:45:15;28.38;;;25.65;;
77544;SDS011;66672;50.328;7.610;2024-01-30T09:47:41;28.98;;;25.92;;
77544;SDS011;66672;50.328;7.610;2024-01-30T09:50:08;33.45;;;26.80;;
77544;SDS011;66672;50.328;7.610;2024-01-30T09:52:33;28.23;;;25.40;;
77544;SDS011;66672;50.328;7.610;2024-01-30T09:54:59;27.30;;;24.80;;
77544;SDS011;66672;50.328;7.610;2024-01-30T09:57:24;29.15;;;26.20;;
77544;SDS011;66672;50.328;7.610;2024-01-30T09:59:51;30.58;;;26.27;;
77544;SDS011;66672;50.328;7.610;2024-01-30T10:02:17;29.27;;;25.95;;
77544;SDS011;66672;50.328;7.610;2024-01-30T10:04:42;30.88;;;26.52;;
77544;SDS011;66672;50.328;7.610;2024-01-30T10:07:08;32.05;;;25.55;;
77544;SDS011;66672;50.328;7.610;2024-01-30T10:09:34;29.05;;;26.25;;
77544;SDS011;66672;50.328;7.610;2024-01-30T10:11:59;27.57;;;24.87;;
77544;SDS011;66672;50.328;7.610;2024-01-30T10:14:24;28.43;;;25.67;;
77544;SDS011;66672;50.328;7.610;2024-01-30T10:16:50;27.97;;;25.33;;
77544;SDS011;66672;50.328;7.610;2024-01-30T10:19:15;29.90;;;26.77;;
77544;SDS011;66672;50.328;7.610;2024-01-30T10:21:40;29.03;;;25.50;;
77544;SDS011;66672;50.328;7.610;2024-01-30T10:24:06;28.73;;;25.60;;
77544;SDS011;66672;50.328;7.610;2024-01-30T10:26:31;28.25;;;25.45;;
77544;SDS011;66672;50.328;7.610;2024-01-30T10:28:59;28.88;;;25.88;;
77544;SDS011;66672;50.328;7.610;2024-01-30T10:31:24;27.75;;;25.05;;
77544;SDS011;66672;50.328;7.610;2024-01-30T10:33:50;27.10;;;24.60;;
77544;SDS011;66672;50.328;7.610;2024-01-30T10:36:15;27.95;;;25.27;;
77544;SDS011;66672;50.328;7.610;2024-01-30T10:38:42;28.58;;;26.08;;
77544;SDS011;66672;50.328;7.610;2024-01-30T10:41:08;28.05;;;25.33;;
77544;SDS011;66672;50.328;7.610;2024-01-30T10:43:40;27.48;;;24.85;;
77544;SDS011;66672;50.328;7.610;2024-01-30T10:46:15;28.00;;;25.33;;
77544;SDS011;66672;50.328;7.610;2024-01-30T10:48:43;28.30;;;25.52;;
77544;SDS011;66672;50.328;7.610;2024-01-30T10:51:09;28.67;;;25.98;;
77544;SDS011;66672;50.328;7.610;2024-01-30T10:53:35;29.77;;;26.73;;
77544;SDS011;66672;50.328;7.610;2024-01-30T10:56:01;28.88;;;26.08;;
77544;SDS011;66672;50.328;7.610;2024-01-30T10:58:27;28.10;;;25.30;;
77544;SDS011;66672;50.328;7.610;2024-01-30T11:00:52;30.17;;;27.05;;
77544;SDS011;66672;50.328;7.610;2024-01-30T11:03:18;29.45;;;26.65;;
77544;SDS011;66672;50.328;7.610;2024-01-30T11:05:48;29.50;;;26.60;;
77544;SDS011;66672;50.328;7.610;2024-01-30T11:08:13;29.35;;;26.67;;
77544;SDS011;66672;50.328;7.610;2024-01-30T11:10:48;28.25;;;25.58;;
77544;SDS011;66672;50.328;7.610;2024-01-30T11:13:13;27.95;;;25.25;;
77544;SDS011;66672;50.328;7.610;2024-01-30T11:15:38;31.63;;;28.23;;
77544;SDS011;66672;50.328;7.610;2024-01-30T11:18:05;29.33;;;26.33;;
77544;SDS011;66672;50.328;7.610;2024-01-30T11:20:31;30.65;;;27.75;;
77544;SDS011;66672;50.328;7.610;2024-01-30T11:22:57;30.40;;;27.52;;
77544;SDS011;66672;50.328;7.610;2024-01-30T11:25:22;31.38;;;28.27;;
77544;SDS011;66672;50.328;7.610;2024-01-30T11:27:55;30.42;;;27.23;;
77544;SDS011;66672;50.328;7.610;2024-01-30T11:30:27;30.90;;;27.73;;
77544;SDS011;66672;50.328;7.610;2024-01-30T11:33:05;30.70;;;27.60;;
77544;SDS011;66672;50.328;7.610;2024-01-30T11:35:31;28.60;;;25.70;;
77544;SDS011;66672;50.328;7.610;2024-01-30T11:37:57;29.55;;;26.27;;
77544;SDS011;66672;50.328;7.610;2024-01-30T11:40:23;29.00;;;26.23;;
77544;SDS011;66672;50.328;7.610;2024-01-30T11:42:49;26.95;;;24.48;;
77544;SDS011;66672;50.328;7.610;2024-01-30T11:45:14;30.50;;;27.27;;
77544;SDS011;66672;50.328;7.610;2024-01-30T11:47:39;28.80;;;26.05;;
77544;SDS011;66672;50.328;7.610;2024-01-30T11:50:04;29.90;;;26.85;;
77544;SDS011;66672;50.328;7.610;2024-01-30T11:52:31;29.85;;;26.90;;
77544;SDS011;66672;50.328;7.610;2024-01-30T11:54:57;30.50;;;27.40;;
77544;SDS011;66672;50.328;7.610;2024-01-30T11:57:22;30.35;;;27.15;;
77544;SDS011;66672;50.328;7.610;2024-01-30T11:59:47;29.95;;;27.08;;
77544;SDS011;66672;50.328;7.610;2024-01-30T12:02:15;29.85;;;26.92;;
77544;SDS011;66672;50.328;7.610;2024-01-30T12:04:41;30.77;;;27.70;;
77544;SDS011;66672;50.328;7.610;2024-01-30T12:07:07;29.40;;;26.33;;
77544;SDS011;66672;50.328;7.610;2024-01-30T12:09:32;32.63;;;29.05;;
77544;SDS011;66672;50.328;7.610;2024-01-30T12:11:57;30.92;;;27.65;;
77544;SDS011;66672;50.328;7.610;2024-01-30T12:14:22;26.48;;;24.17;;
77544;SDS011;66672;50.328;7.610;2024-01-30T12:16:50;27.15;;;24.67;;
77544;SDS011;66672;50.328;7.610;2024-01-30T12:19:22;24.08;;;21.85;;
77544;SDS011;66672;50.328;7.610;2024-01-30T12:21:48;28.23;;;25.25;;
77544;SDS011;66672;50.328;7.610;2024-01-30T12:24:18;31.10;;;27.77;;
77544;SDS011;66672;50.328;7.610;2024-01-30T12:26:43;29.65;;;26.95;;
77544;SDS011;66672;50.328;7.610;2024-01-30T12:29:08;29.30;;;26.20;;
77544;SDS011;66672;50.328;7.610;2024-01-30T12:31:33;29.20;;;26.50;;
77544;SDS011;66672;50.328;7.610;2024-01-30T12:33:59;27.90;;;25.20;;
77544;SDS011;66672;50.328;7.610;2024-01-30T12:36:24;31.30;;;28.00;;
77544;SDS011;66672;50.328;7.610;2024-01-30T12:38:49;32.10;;;29.02;;
77544;SDS011;66672;50.328;7.610;2024-01-30T12:41:15;30.63;;;27.52;;
77544;SDS011;66672;50.328;7.610;2024-01-30T12:43:40;32.60;;;26.98;;
77544;SDS011;66672;50.328;7.610;2024-01-30T12:46:05;29.50;;;26.58;;
77544;SDS011;66672;50.328;7.610;2024-01-30T12:48:30;30.23;;;27.23;;
77544;SDS011;66672;50.328;7.610;2024-01-30T12:50:56;27.50;;;24.70;;
77544;SDS011;66672;50.328;7.610;2024-01-30T12:53:21;27.10;;;24.30;;
77544;SDS011;66672;50.328;7.610;2024-01-30T12:55:46;23.92;;;21.40;;
77544;SDS011;66672;50.328;7.610;2024-01-30T12:58:12;21.60;;;19.58;;
77544;SDS011;66672;50.328;7.610;2024-01-30T13:00:37;28.70;;;25.90;;
77544;SDS011;66672;50.328;7.610;2024-01-30T13:03:02;28.48;;;25.85;;
77544;SDS011;66672;50.328;7.610;2024-01-30T13:05:27;26.17;;;23.88;;
77544;SDS011;66672;50.328;7.610;2024-01-30T13:07:52;27.85;;;25.40;;
77544;SDS011;66672;50.328;7.610;2024-01-30T13:10:18;25.85;;;23.45;;
77544;SDS011;66672;50.328;7.610;2024-01-30T13:12:43;22.55;;;20.27;;
77544;SDS011;66672;50.328;7.610;2024-01-30T13:15:09;22.17;;;20.23;;
77544;SDS011;66672;50.328;7.610;2024-01-30T13:17:36;21.65;;;19.85;;
77544;SDS011;66672;50.328;7.610;2024-01-30T13:20:01;21.20;;;19.20;;
77544;SDS011;66672;50.328;7.610;2024-01-30T13:22:26;21.52;;;19.70;;
77544;SDS011;66672;50.328;7.610;2024-01-30T13:24:51;21.80;;;19.80;;
77544;SDS011;66672;50.328;7.610;2024-01-30T13:27:16;21.88;;;19.70;;
77544;SDS011;66672;50.328;7.610;2024-01-30T13:29:42;21.92;;;19.95;;
77544;SDS011;66672;50.328;7.610;2024-01-30T13:32:07;22.52;;;20.60;;
77544;SDS011;66672;50.328;7.610;2024-01-30T13:34:32;22.25;;;20.33;;
77544;SDS011;66672;50.328;7.610;2024-01-30T13:36:57;21.60;;;19.75;;
77544;SDS011;66672;50.328;7.610;2024-01-30T13:39:23;20.50;;;18.80;;
77544;SDS011;66672;50.328;7.610;2024-01-30T13:41:48;22.10;;;20.27;;
77544;SDS011;66672;50.328;7.610;2024-01-30T13:44:13;21.60;;;19.60;;
77544;SDS011;66672;50.328;7.610;2024-01-30T13:46:39;21.02;;;19.15;;
77544;SDS011;66672;50.328;7.610;2024-01-30T13:49:04;21.45;;;19.45;;
77544;SDS011;66672;50.328;7.610;2024-01-30T13:51:29;21.13;;;19.40;;
77544;SDS011;66672;50.328;7.610;2024-01-30T13:53:54;21.38;;;19.08;;
77544;SDS011;66672;50.328;7.610;2024-01-30T13:56:20;20.60;;;18.60;;
77544;SDS011;66672;50.328;7.610;2024-01-30T13:58:46;21.58;;;19.20;;
77544;SDS011;66672;50.328;7.610;2024-01-30T14:01:11;20.83;;;19.13;;
77544;SDS011;66672;50.328;7.610;2024-01-30T14:03:36;20.52;;;18.70;;
77544;SDS011;66672;50.328;7.610;2024-01-30T14:06:01;21.48;;;19.60;;
77544;SDS011;66672;50.328;7.610;2024-01-30T14:08:26;21.33;;;19.50;;
77544;SDS011;66672;50.328;7.610;2024-01-30T14:10:53;22.20;;;20.10;;